Site contains unofficial IBTrACS data. Visit the IBTrACS Website to access archived data.

1923 NOT_NAMED (1923337N14131)


IBTrACS version v04r00. Visit IBTrACS website for data access.
Please direct all questions to the IBTrACS Q and A forum

Storm track - Intensity - Wind Radii - Intensity Data - Source Data - All data

Summary Information

Storm ID 1923337N14131
Start Dec 2 22Z
Landfall Dec 5 06Z
End Dec 5 22Z
ATCF IDs
Track status Best track data.

Storm track plot

Map of storm track

Intensity plots

No Intensity information for this storm


Radial wind information

No radial wind information for this storm


Position and Intensity Table

BASIN ISO_TIME_________ NATURE LAT LON
degrees north degrees east
WP 1923-12-02 22:00:00 NR 13.50 131.00
WP 1923-12-03 00:00:00 NR 13.55 130.74
WP 03:00:00 NR 13.62 130.36
WP 06:00:00 NR 13.70 130.01
WP 09:00:00 NR 13.77 129.69
WP 10:00:00 NR 13.80 129.60
WP 12:00:00 NR 13.85 129.43
WP 15:00:00 NR 13.94 129.20
WP 18:00:00 NR 14.02 128.97
WP 21:00:00 NR 14.08 128.71
WP 22:00:00 NR 14.10 128.60
WP 1923-12-04 00:00:00 NR 14.13 128.35
WP 03:00:00 NR 14.16 127.91
WP 06:00:00 NR 14.19 127.44
WP 09:00:00 NR 14.20 126.96
WP 10:00:00 NR 14.20 126.80
WP 12:00:00 NR 14.20 126.55
WP 15:00:00 NR 14.21 126.17
WP 18:00:00 NR 14.20 125.74
WP 21:00:00 NR 14.20 125.21
WP 22:00:00 NR 14.20 125.00
WP 1923-12-05 00:00:00 NR 14.20 124.50
WP 03:00:00 NR 14.20 123.63
WP 06:00:00 NR 14.20 122.68
WP 09:00:00 NR 14.20 121.72
WP 10:00:00 NR 14.20 121.40
WP 12:00:00 NR 14.20 120.79
WP 15:00:00 NR 14.20 119.92
WP 18:00:00 NR 14.20 119.08
WP 21:00:00 NR 14.20 118.27
WP 22:00:00 NR 14.20 118.00

Source Information

Agency Information
USA
TOKYO
CMA
HKO
NEWDELHI
REUNION
BOM
NADI
WELLINGTON
DS824
TD9636 cons_worldwide_trop_cyclone_18710101-19891231-003:Line=7115
TD9635
NEUMANN
MLC

All available IBTrACS Data

SEASON BASIN SUBBASIN ISO_TIME_________ NATURE LAT LON DIST2LAND LANDFALL IFLAG USA SSHS TD9636 LAT TD9636 LON TD9636 STAGE STORM SPEED STORM DIR
Year degrees north degrees east km km 1 degrees north degrees east kts degrees
1923 WP MM 1923-12-02 22:00:00 NR 13.50 131.00 614 582 __________O___ -1 13.50 131.00 7 8 281
1923 WP MM 1923-12-03 00:00:00 NR 13.55 130.74 582 554 __________P___ -1 13.55 130.74 7 8 281
1923 WP MM 03:00:00 NR 13.62 130.36 554 516 __________P___ -1 13.62 130.36 7 7 282
1923 WP MM 06:00:00 NR 13.70 130.01 516 489 __________P___ -1 13.70 130.01 7 7 283
1923 WP MM 09:00:00 NR 13.77 129.69 489 479 __________P___ -1 13.77 129.69 7 6 285
1923 WP MM 10:00:00 NR 13.80 129.60 479 463 __________O___ -1 13.80 129.60 7 5 288
1923 WP MM 12:00:00 NR 13.85 129.43 463 443 __________P___ -1 13.85 129.43 7 5 290
1923 WP MM 15:00:00 NR 13.94 129.20 443 429 __________P___ -1 13.94 129.20 7 5 290
1923 WP MM 18:00:00 NR 14.02 128.97 429 406 __________P___ -1 14.02 128.97 7 5 287
1923 WP MM 21:00:00 NR 14.08 128.71 406 397 __________P___ -1 14.08 128.71 7 6 283
1923 WP MM 22:00:00 NR 14.10 128.60 397 370 __________O___ -1 14.10 128.60 7 7 278
1923 WP MM 1923-12-04 00:00:00 NR 14.13 128.35 370 343 __________P___ -1 14.13 128.35 7 8 276
1923 WP MM 03:00:00 NR 14.16 127.91 343 303 __________P___ -1 14.16 127.91 7 9 274
1923 WP MM 06:00:00 NR 14.19 127.44 303 272 __________P___ -1 14.19 127.44 7 9 272
1923 WP MM 09:00:00 NR 14.20 126.96 272 257 __________P___ -1 14.20 126.96 7 9 271
1923 WP MM 10:00:00 NR 14.20 126.80 257 229 __________O___ -1 14.20 126.80 3 8 271
1923 WP MM 12:00:00 NR 14.20 126.55 229 197 __________P___ -1 14.20 126.55 3 7 271
1923 WP MM 15:00:00 NR 14.21 126.17 197 144 __________P___ -1 14.21 126.17 3 8 270
1923 WP MM 18:00:00 NR 14.20 125.74 144 92 __________P___ -1 14.20 125.74 3 9 270
1923 WP MM 21:00:00 NR 14.20 125.21 92 72 __________P___ -1 14.20 125.21 3 11 270
1923 WP MM 22:00:00 NR 14.20 125.00 72 31 __________O___ -1 14.20 125.00 4 14 270
1923 WP MM 1923-12-05 00:00:00 NR 14.20 124.50 31 22 __________P___ -1 14.20 124.50 4 16 270
1923 WP MM 03:00:00 NR 14.20 123.63 33 0 __________P___ -1 14.20 123.63 4 18 270
1923 WP MM 06:00:00 NR 14.20 122.68 0 0 __________P___ -1 14.20 122.68 4 19 270
1923 WP MM 09:00:00 NR 14.20 121.72 0 0 __________P___ -1 14.20 121.72 4 19 270
1923 WP MM 10:00:00 NR 14.20 121.40 0 0 __________O___ -1 14.20 121.40 4 18 270
1923 WP MM 12:00:00 NR 14.20 120.79 0 0 __________P___ -1 14.20 120.79 4 17 270
1923 WP MM 15:00:00 NR 14.20 119.92 63 63 __________P___ -1 14.20 119.92 4 17 270
1923 WP MM 18:00:00 NR 14.20 119.08 126 136 __________P___ -1 14.20 119.08 4 16 270
1923 WP MM 21:00:00 NR 14.20 118.27 205 215 __________P___ -1 14.20 118.27 4 16 270
1923 WP MM 22:00:00 NR 14.20 118.00 235 __________O___ -1 14.20 118.00 4 16 270